createdAt,value
2022-10-07T00:07:38.947Z,6.45
2022-10-07T00:22:35.399Z,6.18
2022-10-07T00:37:31.363Z,5.95
2022-10-07T00:52:27.331Z,5.82
2022-10-07T01:07:23.610Z,5.53
2022-10-07T01:22:19.546Z,5.63
2022-10-07T01:37:15.554Z,5.44
2022-10-07T01:52:11.720Z,5.52
2022-10-07T02:07:07.325Z,5.54
2022-10-07T02:22:03.582Z,5.17
2022-10-07T02:36:59.765Z,5.12
2022-10-07T02:51:55.770Z,5.54
2022-10-07T03:06:52.094Z,5.48
2022-10-07T03:21:48.441Z,5.49
2022-10-07T03:51:41.306Z,5.98
2022-10-07T04:06:37.379Z,6.34
2022-10-07T04:21:34.484Z,6.41
2022-10-07T04:36:30.706Z,6.49
2022-10-07T04:51:27.304Z,6.57
2022-10-07T05:06:23.473Z,6.63
2022-10-07T05:21:19.798Z,6.68
2022-10-07T05:36:15.793Z,6.68
2022-10-07T05:51:12.254Z,6.68
2022-10-07T06:06:08.684Z,6.66
2022-10-07T06:21:05.009Z,6.84
2022-10-07T06:36:04.406Z,6.96
2022-10-07T06:50:58.392Z,7.08
2022-10-07T07:05:54.973Z,7
2022-10-07T07:20:51.395Z,7.61
2022-10-07T07:35:47.407Z,7.53
2022-10-07T07:50:43.515Z,7.74
2022-10-07T08:05:39.784Z,8.3
2022-10-07T08:20:36.142Z,8.29
2022-10-07T08:35:32.632Z,9.22
2022-10-07T08:50:29.088Z,10.2
2022-10-07T09:05:25.723Z,12.36
2022-10-07T09:20:21.947Z,13.13
2022-10-07T09:35:18.630Z,14.1
2022-10-07T09:50:16.031Z,14.99
2022-10-07T10:05:12.808Z,15.96
2022-10-07T10:20:09.449Z,14.47
2022-10-07T10:35:05.805Z,16.29
2022-10-07T10:50:02.157Z,17.32
2022-10-07T11:04:59.067Z,18.87
2022-10-07T11:19:55.990Z,19.44
2022-10-07T11:34:54.650Z,18.77
2022-10-07T11:49:48.403Z,19.04
2022-10-07T12:04:44.926Z,19.67
2022-10-07T12:19:42.087Z,19.55
2022-10-07T12:34:38.259Z,20.6
2022-10-07T12:49:34.475Z,18.33
2022-10-07T13:04:30.837Z,17.97
2022-10-07T13:19:26.755Z,18.12
2022-10-07T13:34:22.863Z,18.15
2022-10-07T13:49:19.166Z,18.01
2022-10-07T14:04:15.411Z,18.19
2022-10-07T14:19:11.935Z,18.18
2022-10-07T14:34:07.412Z,18.41
2022-10-07T14:49:03.890Z,18.57
2022-10-07T15:04:00.695Z,18.58
2022-10-07T15:18:56.838Z,18.46
2022-10-07T15:33:52.804Z,17.82
2022-10-07T15:48:49.067Z,17.78
2022-10-07T16:03:44.728Z,17.44
2022-10-07T16:18:40.680Z,17.12
2022-10-07T16:33:36.803Z,16.71
2022-10-07T16:48:33.419Z,16.03
2022-10-07T17:03:29.261Z,14.58
2022-10-07T17:18:24.981Z,14
2022-10-07T17:33:20.713Z,14.53
2022-10-07T17:48:16.402Z,13.8
2022-10-07T18:03:12.091Z,12.81
2022-10-07T18:18:07.749Z,12.09
2022-10-07T18:33:03.538Z,12.04
2022-10-07T18:47:59.308Z,11.73
2022-10-07T19:02:55.674Z,11.67
2022-10-07T19:17:51.753Z,11.88
2022-10-07T19:32:49.770Z,11.97
2022-10-07T19:47:44.697Z,11.48
2022-10-07T20:02:40.386Z,10.82
2022-10-07T20:17:36.432Z,10.59
2022-10-07T20:32:32.152Z,10.46
2022-10-07T20:47:28.368Z,9.96
2022-10-07T21:02:23.970Z,9.75
2022-10-07T21:17:19.768Z,9.4
2022-10-07T21:32:16.131Z,9.01
2022-10-07T21:47:12.295Z,8.77
2022-10-07T22:02:07.995Z,8.61
2022-10-07T22:17:04.351Z,8.25
2022-10-07T22:32:00.663Z,7.99
2022-10-07T22:46:56.540Z,7.66
2022-10-07T23:01:52.721Z,7.34
2022-10-07T23:16:49.584Z,7.19
2022-10-07T23:31:45.143Z,7.31
2022-10-07T23:46:41.253Z,6.97
